createdAt,value
2019-03-18T00:02:04.071Z,1.73
2019-03-18T00:04:32.725Z,1.70
2019-03-18T00:07:01.652Z,1.90
2019-03-18T00:09:30.635Z,1.67
2019-03-18T00:11:59.709Z,1.33
2019-03-18T00:14:28.331Z,2.47
2019-03-18T00:16:56.979Z,1.93
2019-03-18T00:19:25.607Z,1.33
2019-03-18T00:21:54.451Z,1.97
2019-03-18T00:24:23.389Z,1.63
2019-03-18T00:26:52.560Z,1.80
2019-03-18T00:29:21.461Z,2.03
2019-03-18T00:31:50.449Z,1.90
2019-03-18T00:34:19.365Z,1.63
2019-03-18T00:36:48.644Z,2.60
2019-03-18T00:39:17.637Z,1.40
2019-03-18T00:41:46.604Z,1.10
2019-03-18T00:44:15.476Z,2.00
2019-03-18T00:46:44.407Z,2.30
2019-03-18T00:49:13.303Z,1.93
2019-03-18T00:51:41.930Z,1.77
2019-03-18T00:54:10.879Z,2.10
2019-03-18T00:56:40.077Z,2.40
2019-03-18T00:59:09.378Z,2.10
2019-03-18T01:01:37.983Z,2.40
2019-03-18T01:04:06.953Z,1.67
2019-03-18T01:06:35.886Z,1.57
2019-03-18T01:09:06.390Z,1.93
2019-03-18T01:11:34.979Z,2.07
2019-03-18T01:14:03.601Z,2.30
2019-03-18T01:16:32.261Z,2.53
2019-03-18T01:19:00.908Z,2.13
2019-03-18T01:21:29.772Z,1.87
2019-03-18T01:23:58.399Z,1.77
2019-03-18T01:26:27.590Z,2.60
2019-03-18T01:28:56.786Z,1.87
2019-03-18T01:31:25.793Z,2.20
2019-03-18T01:33:54.678Z,2.27
2019-03-18T01:36:23.621Z,2.17
2019-03-18T01:38:52.876Z,2.20
2019-03-18T01:41:21.487Z,2.30
2019-03-18T01:43:50.646Z,2.40
2019-03-18T01:46:19.645Z,2.53
2019-03-18T01:48:48.541Z,1.97
2019-03-18T01:51:17.431Z,2.23
2019-03-18T01:53:46.153Z,1.90
2019-03-18T01:56:14.800Z,2.73
2019-03-18T01:58:43.737Z,2.67
2019-03-18T02:01:12.685Z,2.37
2019-03-18T02:03:41.879Z,3.40
2019-03-18T02:06:10.878Z,2.77
2019-03-18T02:08:39.790Z,3.60
2019-03-18T02:11:08.369Z,2.70
2019-03-18T02:13:37.554Z,2.80
2019-03-18T02:16:06.545Z,3.50
2019-03-18T02:18:35.748Z,3.50
2019-03-18T02:21:04.437Z,2.60
2019-03-18T02:23:33.626Z,3.57
2019-03-18T02:26:02.268Z,3.83
2019-03-18T02:28:31.208Z,3.37
2019-03-18T02:30:59.841Z,4.00
2019-03-18T02:33:28.472Z,3.73
2019-03-18T02:35:57.366Z,3.40
2019-03-18T02:38:26.361Z,3.47
2019-03-18T02:40:55.244Z,2.87
2019-03-18T02:43:24.174Z,2.73
2019-03-18T02:46:08.911Z,3.40
2019-03-18T02:48:23.418Z,3.10
2019-03-18T02:50:52.475Z,2.97
2019-03-18T02:53:21.102Z,3.53
2019-03-18T02:55:50.050Z,3.10
2019-03-18T02:58:18.756Z,3.20
2019-03-18T03:00:48.008Z,4.07
2019-03-18T03:03:16.627Z,2.73
2019-03-18T03:05:45.601Z,2.80
2019-03-18T03:08:14.897Z,3.10
2019-03-18T03:10:43.658Z,2.90
2019-03-18T03:13:12.596Z,3.43
2019-03-18T03:15:41.678Z,2.77
2019-03-18T03:18:10.306Z,2.70
2019-03-18T03:20:39.261Z,2.37
2019-03-18T03:23:08.157Z,3.27
2019-03-18T03:25:36.765Z,2.83
2019-03-18T03:28:05.841Z,3.03
2019-03-18T03:30:34.552Z,3.27
2019-03-18T03:33:03.631Z,3.73
2019-03-18T03:35:32.514Z,3.03
2019-03-18T03:38:01.496Z,2.80
2019-03-18T03:40:30.138Z,2.77
2019-03-18T03:42:59.075Z,2.57
2019-03-18T03:45:27.967Z,2.70
2019-03-18T03:47:56.852Z,2.77
2019-03-18T03:50:25.497Z,2.80
2019-03-18T03:52:54.155Z,2.93
2019-03-18T03:55:22.801Z,2.07
2019-03-18T03:57:51.915Z,3.03
2019-03-18T04:00:20.796Z,2.27
2019-03-18T04:02:49.509Z,2.17
2019-03-18T04:05:18.486Z,3.13
2019-03-18T04:07:47.113Z,2.60
2019-03-18T04:10:16.156Z,3.10
2019-03-18T04:12:45.149Z,2.43
2019-03-18T04:15:13.766Z,2.10
2019-03-18T04:17:42.866Z,2.40
2019-03-18T04:20:12.028Z,2.57
2019-03-18T04:22:40.941Z,2.40
2019-03-18T04:25:09.602Z,2.87
2019-03-18T04:27:38.497Z,2.50
2019-03-18T04:30:08.105Z,2.90
2019-03-18T04:32:36.997Z,2.57
2019-03-18T04:35:05.790Z,2.47
2019-03-18T04:37:34.442Z,2.40
2019-03-18T04:40:03.476Z,2.27
2019-03-18T04:42:32.359Z,1.67
2019-03-18T04:45:01.252Z,2.43
2019-03-18T04:47:30.139Z,2.50
2019-03-18T04:49:59.032Z,2.17
2019-03-18T04:52:27.923Z,1.93
2019-03-18T04:54:57.124Z,2.13
2019-03-18T04:57:26.198Z,2.10
2019-03-18T04:59:55.416Z,1.93
2019-03-18T05:02:24.715Z,2.53
2019-03-18T05:04:53.913Z,1.93
2019-03-18T05:07:22.548Z,2.40
2019-03-18T05:09:51.223Z,2.43
2019-03-18T05:12:20.189Z,2.57
2019-03-18T05:14:50.016Z,2.60
2019-03-18T05:17:26.506Z,2.73
2019-03-18T05:19:49.541Z,1.90
2019-03-18T05:22:18.195Z,1.80
2019-03-18T05:24:47.092Z,1.90
2019-03-18T05:27:16.096Z,1.90
2019-03-18T05:29:45.061Z,1.67
2019-03-18T05:32:14.080Z,2.07
2019-03-18T05:34:42.952Z,1.30
2019-03-18T05:37:11.873Z,1.90
2019-03-18T05:39:40.787Z,1.73
2019-03-18T05:42:09.747Z,1.37
2019-03-18T05:44:38.739Z,1.43
2019-03-18T05:47:07.723Z,2.53
2019-03-18T05:49:37.275Z,2.10
2019-03-18T05:52:06.243Z,1.47
2019-03-18T05:54:35.218Z,1.67
2019-03-18T05:57:04.429Z,2.97
2019-03-18T05:59:33.039Z,1.50
2019-03-18T06:02:01.887Z,1.50
2019-03-18T06:04:30.487Z,2.00
2019-03-18T06:06:59.478Z,1.90
2019-03-18T06:09:28.331Z,1.73
2019-03-18T06:11:56.962Z,1.97
2019-03-18T06:14:25.949Z,1.33
2019-03-18T06:16:54.963Z,2.13
2019-03-18T06:19:23.586Z,1.63
2019-03-18T06:21:52.193Z,4.23
2019-03-18T06:24:21.100Z,2.33
2019-03-18T06:26:50.008Z,1.90
2019-03-18T06:29:18.968Z,1.70
2019-03-18T06:31:47.573Z,1.77
2019-03-18T06:34:16.469Z,1.60
2019-03-18T06:36:45.566Z,2.50
2019-03-18T06:39:14.857Z,2.93
2019-03-18T06:41:44.060Z,1.73
2019-03-18T06:44:13.024Z,2.13
2019-03-18T06:46:41.944Z,2.43
2019-03-18T06:49:10.563Z,1.23
2019-03-18T06:51:39.811Z,1.20
2019-03-18T06:54:08.504Z,1.73
2019-03-18T06:56:37.358Z,1.80
2019-03-18T06:59:06.280Z,2.63
2019-03-18T07:01:35.499Z,2.27
2019-03-18T07:04:04.131Z,2.57
2019-03-18T07:06:33.593Z,2.07
2019-03-18T07:09:02.575Z,2.10
2019-03-18T07:11:31.457Z,2.23
2019-03-18T07:14:00.678Z,2.03
2019-03-18T07:16:29.778Z,1.63
2019-03-18T07:18:58.401Z,1.90
2019-03-18T07:21:27.942Z,2.07
2019-03-18T07:23:56.512Z,1.33
2019-03-18T07:26:25.172Z,1.60
2019-03-18T07:28:54.118Z,1.90
2019-03-18T07:31:22.759Z,2.10
2019-03-18T07:33:51.389Z,1.50
2019-03-18T07:36:20.285Z,2.83
2019-03-18T07:38:49.174Z,1.77
2019-03-18T07:41:18.377Z,1.70
2019-03-18T07:43:47.578Z,1.80
2019-03-18T07:46:16.475Z,1.77
2019-03-18T07:48:45.386Z,2.30
2019-03-18T07:51:14.007Z,1.77
2019-03-18T07:53:42.934Z,4.10
2019-03-18T07:56:11.931Z,1.70
2019-03-18T07:58:40.920Z,2.17
2019-03-18T08:01:09.839Z,2.27
2019-03-18T08:03:38.433Z,2.23
2019-03-18T08:06:07.105Z,2.50
2019-03-18T08:08:35.823Z,2.20
2019-03-18T08:11:04.645Z,2.27
2019-03-18T08:13:33.301Z,2.80
2019-03-18T08:16:02.226Z,1.70
2019-03-18T08:18:42.438Z,2.03
2019-03-18T08:21:01.450Z,2.10
2019-03-18T08:23:30.456Z,2.10
2019-03-18T08:25:59.437Z,3.23
2019-03-18T08:28:28.054Z,2.00
2019-03-18T08:30:57.015Z,2.30
2019-03-18T08:33:25.907Z,1.90
2019-03-18T08:35:54.954Z,2.20
2019-03-18T08:38:23.674Z,1.53
2019-03-18T08:40:52.585Z,1.97
2019-03-18T08:43:21.778Z,1.77
2019-03-18T08:45:50.402Z,1.80
2019-03-18T08:48:19.889Z,2.17
2019-03-18T08:50:48.511Z,1.70
2019-03-18T08:53:17.159Z,2.80
2019-03-18T08:55:46.440Z,2.13
2019-03-18T08:58:15.458Z,1.93
2019-03-18T09:00:44.431Z,1.50
2019-03-18T09:03:13.326Z,2.33
2019-03-18T09:05:42.316Z,2.00
2019-03-18T09:08:10.932Z,2.20
2019-03-18T09:10:39.603Z,1.30
2019-03-18T09:13:08.885Z,1.67
2019-03-18T09:15:37.485Z,1.90
2019-03-18T09:18:07.077Z,1.43
2019-03-18T09:20:36.068Z,1.63
2019-03-18T09:23:05.055Z,2.03
2019-03-18T09:25:33.714Z,2.07
2019-03-18T09:28:02.651Z,2.30
2019-03-18T09:30:31.268Z,2.17
2019-03-18T09:33:00.219Z,1.87
2019-03-18T09:35:29.118Z,2.27
2019-03-18T09:37:58.011Z,1.90
2019-03-18T09:40:29.290Z,1.90
2019-03-18T09:42:57.853Z,1.83
2019-03-18T09:45:26.809Z,2.37
2019-03-18T09:47:56.335Z,2.30
2019-03-18T09:50:25.059Z,2.37
2019-03-18T09:52:53.703Z,2.67
2019-03-18T09:55:22.345Z,2.70
2019-03-18T09:57:51.282Z,3.70
2019-03-18T10:00:20.292Z,2.83
2019-03-18T10:02:49.281Z,3.00
2019-03-18T10:05:17.890Z,2.47
2019-03-18T10:07:46.871Z,2.17
2019-03-18T10:10:15.953Z,2.47
2019-03-18T10:12:44.832Z,1.90
2019-03-18T10:15:13.573Z,2.50
2019-03-18T10:17:42.926Z,1.73
2019-03-18T10:20:11.921Z,1.33
2019-03-18T10:22:40.551Z,1.30
2019-03-18T10:25:09.600Z,1.77
2019-03-18T10:27:38.494Z,1.57
2019-03-18T10:30:07.587Z,1.33
2019-03-18T10:32:36.237Z,1.60
2019-03-18T10:35:05.782Z,1.20
2019-03-18T10:37:34.673Z,1.70
2019-03-18T10:40:05.723Z,2.27
2019-03-18T10:42:34.608Z,2.27
2019-03-18T10:45:03.493Z,1.60
2019-03-18T10:47:32.800Z,2.00
2019-03-18T10:50:02.005Z,1.73
2019-03-18T10:52:30.602Z,1.33
2019-03-18T10:54:59.992Z,1.63
2019-03-18T10:57:28.636Z,1.63
2019-03-18T10:59:57.565Z,2.17
2019-03-18T11:02:26.185Z,2.50
2019-03-18T11:04:55.158Z,2.10
2019-03-18T11:07:24.039Z,1.03
2019-03-18T11:09:52.712Z,2.40
2019-03-18T11:12:21.921Z,2.23
2019-03-18T11:14:50.809Z,1.73
2019-03-18T11:17:19.477Z,2.17
2019-03-18T11:19:57.949Z,2.57
2019-03-18T11:22:19.119Z,2.93
2019-03-18T11:24:48.313Z,2.30
2019-03-18T11:27:17.310Z,2.40
2019-03-18T11:29:46.201Z,3.80
2019-03-18T11:32:15.302Z,2.90
2019-03-18T11:34:43.927Z,2.07
2019-03-18T11:37:12.881Z,2.10
2019-03-18T11:39:42.084Z,2.13
2019-03-18T11:42:10.805Z,2.77
2019-03-18T11:44:39.760Z,2.33
2019-03-18T11:47:08.416Z,1.93
2019-03-18T11:49:39.780Z,2.30
2019-03-18T11:52:08.281Z,3.30
2019-03-18T11:54:37.035Z,2.10
2019-03-18T11:57:06.157Z,3.77
2019-03-18T11:59:34.832Z,2.20
2019-03-18T12:02:03.838Z,2.90
2019-03-18T12:04:32.934Z,3.27
2019-03-18T12:07:01.665Z,2.70
2019-03-18T12:09:30.622Z,3.03
2019-03-18T12:11:59.607Z,2.30
2019-03-18T12:14:28.495Z,2.13
2019-03-18T12:16:57.807Z,1.80
2019-03-18T12:19:26.791Z,2.30
2019-03-18T12:21:55.682Z,2.07
2019-03-18T12:24:24.325Z,1.90
2019-03-18T12:26:53.260Z,1.60
2019-03-18T12:29:22.086Z,2.03
2019-03-18T12:31:51.050Z,2.37
2019-03-18T12:34:19.677Z,1.57
2019-03-18T12:36:49.046Z,3.17
2019-03-18T12:39:18.029Z,2.40
2019-03-18T12:41:46.915Z,3.10
2019-03-18T12:44:15.911Z,3.23
2019-03-18T12:46:44.800Z,1.97
2019-03-18T12:49:13.725Z,1.87
2019-03-18T12:51:42.688Z,2.50
2019-03-18T12:54:11.579Z,2.27
2019-03-18T12:56:40.465Z,1.97
2019-03-18T12:59:09.357Z,1.57
2019-03-18T13:01:37.984Z,2.27
2019-03-18T13:04:07.344Z,1.60
2019-03-18T13:06:36.347Z,2.00
2019-03-18T13:09:08.517Z,2.07
2019-03-18T13:11:37.518Z,2.27
2019-03-18T13:14:06.172Z,1.40
2019-03-18T13:16:35.080Z,1.30
2019-03-18T13:19:03.991Z,1.70
2019-03-18T13:21:33.322Z,2.23
2019-03-18T13:24:01.984Z,1.93
2019-03-18T13:26:30.954Z,2.37
2019-03-18T13:28:59.845Z,2.03
2019-03-18T13:31:28.474Z,2.27
2019-03-18T13:33:57.422Z,1.97
2019-03-18T13:36:26.065Z,2.57
2019-03-18T13:38:54.711Z,1.50
2019-03-18T13:41:23.329Z,1.67
2019-03-18T13:43:52.269Z,1.93
2019-03-18T13:46:20.891Z,1.70
2019-03-18T13:48:49.771Z,1.23
2019-03-18T13:51:21.154Z,1.47
2019-03-18T13:53:49.004Z,1.40
2019-03-18T13:56:17.957Z,1.50
2019-03-18T13:58:46.581Z,1.10
2019-03-18T14:01:15.535Z,1.23
2019-03-18T14:03:44.547Z,1.83
2019-03-18T14:06:13.699Z,2.00
2019-03-18T14:08:42.703Z,1.77
2019-03-18T14:11:11.407Z,1.70
2019-03-18T14:13:40.403Z,2.40
2019-03-18T14:16:09.055Z,1.27
2019-03-18T14:18:37.986Z,1.93
2019-03-18T14:21:06.690Z,1.33
2019-03-18T14:23:35.967Z,1.30
2019-03-18T14:26:05.065Z,1.33
2019-03-18T14:28:34.055Z,1.83
2019-03-18T14:31:02.722Z,2.30
2019-03-18T14:33:31.351Z,1.50
2019-03-18T14:35:59.984Z,1.13
2019-03-18T14:38:29.248Z,1.87
2019-03-18T14:40:57.852Z,2.00
2019-03-18T14:43:26.788Z,1.57
2019-03-18T14:45:55.695Z,1.23
2019-03-18T14:48:24.679Z,2.20
2019-03-18T14:50:53.684Z,2.03
2019-03-18T14:53:22.333Z,1.90
2019-03-18T14:55:51.243Z,1.50
2019-03-18T14:58:20.444Z,2.43
2019-03-18T15:00:49.347Z,3.07
2019-03-18T15:03:18.643Z,2.60
2019-03-18T15:05:47.629Z,2.50
2019-03-18T15:08:16.524Z,2.10
2019-03-18T15:10:45.413Z,2.40
2019-03-18T15:13:14.035Z,2.40
2019-03-18T15:15:42.930Z,2.40
2019-03-18T15:18:11.664Z,1.73
2019-03-18T15:20:40.584Z,2.57
2019-03-18T15:23:09.328Z,2.10
2019-03-18T15:25:38.248Z,2.40
2019-03-18T15:28:07.139Z,2.40
2019-03-18T15:30:36.030Z,2.57
2019-03-18T15:33:04.726Z,2.53
2019-03-18T15:35:33.336Z,2.27
2019-03-18T15:38:02.085Z,2.67
2019-03-18T15:40:30.829Z,2.63
2019-03-18T15:42:59.463Z,3.00
2019-03-18T15:45:28.764Z,2.73
2019-03-18T15:47:57.869Z,2.20
2019-03-18T15:50:26.968Z,2.90
2019-03-18T15:52:56.219Z,3.37
2019-03-18T15:55:24.877Z,2.70
2019-03-18T15:57:53.594Z,2.67
2019-03-18T16:00:22.522Z,2.47
2019-03-18T16:02:51.515Z,3.00
2019-03-18T16:05:20.141Z,3.13
2019-03-18T16:07:49.206Z,2.77
2019-03-18T16:10:17.936Z,2.97
2019-03-18T16:12:46.888Z,3.13
2019-03-18T16:15:15.527Z,2.80
2019-03-18T16:17:44.181Z,3.33
2019-03-18T16:20:14.198Z,2.80
2019-03-18T16:22:42.831Z,3.33
2019-03-18T16:25:11.685Z,3.30
2019-03-18T16:27:40.652Z,3.97
2019-03-18T16:30:11.369Z,4.07
2019-03-18T16:32:40.685Z,2.30
2019-03-18T16:35:10.313Z,2.70
2019-03-18T16:37:39.433Z,2.50
2019-03-18T16:40:09.725Z,3.17
2019-03-18T16:42:38.971Z,2.80
2019-03-18T16:45:08.947Z,2.17
2019-03-18T16:47:37.781Z,1.93
2019-03-18T16:50:08.138Z,3.10
2019-03-18T16:52:37.020Z,3.00
2019-03-18T16:55:05.779Z,2.50
2019-03-18T16:57:34.700Z,2.57
2019-03-18T17:00:03.592Z,3.37
2019-03-18T17:02:32.617Z,4.10
2019-03-18T17:05:01.500Z,4.50
2019-03-18T17:07:30.287Z,2.80
2019-03-18T17:09:58.962Z,2.40
2019-03-18T17:12:28.024Z,2.47
2019-03-18T17:14:56.651Z,3.83
2019-03-18T17:17:25.512Z,2.97
2019-03-18T17:19:54.113Z,2.50
2019-03-18T17:22:23.012Z,3.07
2019-03-18T17:24:51.641Z,3.50
2019-03-18T17:27:20.513Z,3.77
2019-03-18T17:29:49.206Z,3.07
2019-03-18T17:32:28.759Z,3.90
2019-03-18T17:34:59.424Z,4.20
2019-03-18T17:37:28.058Z,3.40
2019-03-18T17:39:56.740Z,3.80
2019-03-18T17:42:25.400Z,3.30
2019-03-18T17:44:54.016Z,3.03
2019-03-18T17:47:22.926Z,3.73
2019-03-18T17:49:53.070Z,3.23
2019-03-18T17:52:21.685Z,3.03
2019-03-18T17:54:50.608Z,2.83
2019-03-18T17:57:19.784Z,4.40
2019-03-18T17:59:48.643Z,3.47
2019-03-18T18:02:17.789Z,3.77
2019-03-18T18:04:46.454Z,3.57
2019-03-18T18:07:15.339Z,3.37
2019-03-18T18:09:43.970Z,3.47
2019-03-18T18:12:12.695Z,3.73
2019-03-18T18:14:41.300Z,3.17
2019-03-18T18:17:10.028Z,3.10
2019-03-18T18:19:38.903Z,3.93
2019-03-18T18:22:07.776Z,2.80
2019-03-18T18:24:36.918Z,3.27
2019-03-18T18:27:05.649Z,3.00
2019-03-18T18:29:34.514Z,2.70
2019-03-18T18:32:03.388Z,3.73
2019-03-18T18:34:32.345Z,4.60
2019-03-18T18:37:01.229Z,2.80
2019-03-18T18:39:30.146Z,2.70
2019-03-18T18:41:59.042Z,4.03
2019-03-18T18:44:27.673Z,2.50
2019-03-18T18:46:56.512Z,2.40
2019-03-18T18:49:25.390Z,2.70
2019-03-18T18:51:54.516Z,3.47
2019-03-18T18:54:23.166Z,3.57
2019-03-18T18:56:52.039Z,1.80
2019-03-18T18:59:21.779Z,4.00
2019-03-18T19:01:50.439Z,2.77
2019-03-18T19:04:21.971Z,2.97
2019-03-18T19:06:50.613Z,2.80
2019-03-18T19:09:19.517Z,3.37
2019-03-18T19:11:48.166Z,2.63
2019-03-18T19:14:16.776Z,3.33
2019-03-18T19:16:45.660Z,2.80
2019-03-18T19:19:14.539Z,2.37
2019-03-18T19:21:43.723Z,4.80
2019-03-18T19:24:12.607Z,3.63
2019-03-18T19:26:41.513Z,3.87
2019-03-18T19:29:10.752Z,4.17
2019-03-18T19:31:39.367Z,3.13
2019-03-18T19:34:08.254Z,3.80
2019-03-18T19:36:37.101Z,3.53
2019-03-18T19:39:07.532Z,3.03
2019-03-18T19:41:36.430Z,2.23
2019-03-18T19:44:05.118Z,3.37
2019-03-18T19:46:33.720Z,4.17
2019-03-18T19:49:02.470Z,3.30
2019-03-18T19:51:31.196Z,5.07
2019-03-18T19:54:00.308Z,4.07
2019-03-18T19:56:29.206Z,3.33
2019-03-18T19:58:58.323Z,3.30
2019-03-18T20:01:26.980Z,4.43
2019-03-18T20:03:55.841Z,4.20
2019-03-18T20:06:24.489Z,4.30
2019-03-18T20:08:53.350Z,3.17
2019-03-18T20:11:22.477Z,3.07
2019-03-18T20:13:51.106Z,3.67
2019-03-18T20:16:20.200Z,3.93
2019-03-18T20:18:50.167Z,3.80
2019-03-18T20:21:19.297Z,3.80
2019-03-18T20:24:00.059Z,3.73
2019-03-18T20:26:18.985Z,4.53
2019-03-18T20:28:47.589Z,2.50
2019-03-18T20:31:25.434Z,3.97
2019-03-18T20:33:46.983Z,4.23
2019-03-18T20:36:15.986Z,4.43
2019-03-18T20:38:44.996Z,3.97
2019-03-18T20:41:13.883Z,4.00
2019-03-18T20:43:42.492Z,3.60
2019-03-18T20:46:11.360Z,4.00
2019-03-18T20:48:40.164Z,3.23
2019-03-18T20:51:09.018Z,4.30
2019-03-18T20:53:37.624Z,3.73
2019-03-18T20:56:06.599Z,4.37
2019-03-18T20:58:35.242Z,3.90
2019-03-18T21:01:04.280Z,3.37
2019-03-18T21:03:33.168Z,2.77
2019-03-18T21:06:01.884Z,3.40
2019-03-18T21:08:30.516Z,3.97
2019-03-18T21:10:59.433Z,4.47
2019-03-18T21:13:28.418Z,4.23
2019-03-18T21:15:57.063Z,4.77
2019-03-18T21:18:26.414Z,3.30
2019-03-18T21:20:55.422Z,3.70
2019-03-18T21:23:24.297Z,4.47
2019-03-18T21:25:52.945Z,3.23
2019-03-18T21:28:21.635Z,3.27
2019-03-18T21:30:50.588Z,4.07
2019-03-18T21:33:19.260Z,3.83
2019-03-18T21:35:49.404Z,3.37
2019-03-18T21:38:18.566Z,3.67
2019-03-18T21:40:47.458Z,3.33
2019-03-18T21:43:16.357Z,5.17
2019-03-18T21:45:45.355Z,4.67
2019-03-18T21:48:13.992Z,3.73
2019-03-18T21:50:42.599Z,3.93
2019-03-18T21:53:11.539Z,4.87
2019-03-18T21:55:40.217Z,4.13
2019-03-18T21:58:09.451Z,3.93
2019-03-18T22:00:38.798Z,3.80
2019-03-18T22:03:07.490Z,4.00
2019-03-18T22:05:36.483Z,3.47
2019-03-18T22:08:05.573Z,4.13
2019-03-18T22:10:34.252Z,3.87
2019-03-18T22:13:03.256Z,3.93
2019-03-18T22:15:32.565Z,3.47
2019-03-18T22:18:01.526Z,4.17
2019-03-18T22:20:30.185Z,3.37
2019-03-18T22:22:59.532Z,4.00
2019-03-18T22:25:28.437Z,3.73
2019-03-18T22:27:57.417Z,3.63
2019-03-18T22:30:26.037Z,3.37
2019-03-18T22:32:54.998Z,4.70
2019-03-18T22:35:23.905Z,3.80
2019-03-18T22:37:52.937Z,4.33
2019-03-18T22:40:21.875Z,3.43
2019-03-18T22:42:50.770Z,4.60
2019-03-18T22:45:19.379Z,4.40
2019-03-18T22:47:47.999Z,3.60
2019-03-18T22:50:17.448Z,3.07
2019-03-18T22:52:46.332Z,3.70
2019-03-18T22:55:15.088Z,4.40
2019-03-18T22:57:43.733Z,3.43
2019-03-18T23:00:26.538Z,4.17
2019-03-18T23:02:55.522Z,4.27
2019-03-18T23:05:24.202Z,3.97
2019-03-18T23:07:53.100Z,4.47
2019-03-18T23:10:21.724Z,5.43
2019-03-18T23:12:50.670Z,3.90
2019-03-18T23:15:19.384Z,4.67
2019-03-18T23:17:48.423Z,3.73
2019-03-18T23:20:17.452Z,3.97
2019-03-18T23:22:46.077Z,4.20
2019-03-18T23:25:15.029Z,3.87
2019-03-18T23:27:44.327Z,2.93
2019-03-18T23:30:13.324Z,4.00
2019-03-18T23:32:41.977Z,2.60
2019-03-18T23:35:11.178Z,3.43
2019-03-18T23:37:40.204Z,3.30
2019-03-18T23:40:09.195Z,3.67
2019-03-18T23:42:37.873Z,3.87
2019-03-18T23:45:06.741Z,5.07
2019-03-18T23:47:35.351Z,3.63
2019-03-18T23:50:04.452Z,3.27
2019-03-18T23:52:33.449Z,3.23
2019-03-18T23:55:02.427Z,3.67
2019-03-18T23:57:31.442Z,5.23
